Date,TemperatureHighF,TemperatureAvgF,TemperatureLowF,DewpointHighF,DewpointAvgF,DewpointLowF,HumidityHigh,HumidityAvg,HumidityLow,PressureMaxIn,PressureMinIn,WindSpeedMaxMPH,WindSpeedAvgMPH,GustSpeedMaxMPH,PrecipitationSumIn
2013-3-1,63.4,45.7,26.6,29.6,23.8,19.7,79,47,19,30.33,30.17,11,3,18,0.00
2013-3-2,63.0,49.5,33.4,32.0,29.2,26.4,76,47,30,30.45,30.21,8,2,16,0.00
2013-3-3,79.2,63.9,39.0,34.7,28.5,23.9,70,31,14,30.21,29.75,12,6,18,0.00
2013-3-4,86.4,70.3,53.2,40.6,28.3,9.4,56,25,6,29.76,29.60,13,2,19,0.00
2013-3-5,65.6,50.9,39.3,42.3,19.7,6.4,62,33,12,30.38,29.70,21,10,23,0.00
2013-3-6,62.7,44.6,24.8,20.7,15.9,10.8,68,36,14,30.46,30.18,11,2,18,0.00
2013-3-7,72.3,55.7,40.6,53.1,34.5,17.2,75,45,32,30.20,30.02,15,5,19,0.00
2013-3-8,65.7,61.1,57.1,60.5,57.3,53.1,96,88,75,30.06,29.89,20,12,25,0.00
2013-3-9,78.7,67.2,58.3,62.6,59.8,56.1,96,79,53,29.88,29.52,19,10,30,1.49
2013-3-10,59.8,53.2,43.3,55.3,34.1,24.5,85,49,32,30.09,29.72,15,7,25,0.01
2013-3-11,67.1,48.5,32.4,30.6,24.9,20.5,70,43,20,30.18,29.98,6,1,10,0.00
2013-3-12,78.6,60.8,42.2,39.0,32.1,24.7,65,38,14,30.27,30.00,16,4,20,0.00
2013-3-13,72.2,57.5,38.8,40.7,36.0,30.0,79,47,26,30.40,30.21,12,4,14,0.00
2013-3-14,77.0,61.7,46.3,51.4,44.1,37.6,75,54,35,30.31,30.13,11,4,18,0.00
2013-3-15,81.7,66.1,52.2,52.5,48.3,43.7,89,56,29,30.15,29.87,13,5,16,0.00
2013-3-16,89.0,70.9,54.6,53.7,50.3,46.4,80,52,24,29.87,29.58,16,7,19,0.00
2013-3-17,74.9,64.2,53.3,59.9,51.4,42.2,90,65,39,29.77,29.62,11,2,13,0.00
2013-3-18,74.1,63.0,48.7,49.9,45.7,41.0,91,56,34,29.93,29.64,13,3,16,0.00
2013-3-19,79.1,59.6,43.8,55.4,48.0,39.9,89,68,38,30.07,29.80,18,6,26,0.08
2013-3-20,67.6,56.9,45.9,49.5,39.3,30.4,87,55,25,30.27,30.00,13,5,15,0.07
2013-3-21,79.8,63.7,51.1,58.5,48.6,36.0,77,59,44,29.99,29.48,15,7,23,0.00
2013-3-22,65.5,57.8,47.4,57.9,49.2,41.9,96,74,53,29.75,29.54,11,5,15,0.00
2013-3-23,77.4,57.9,46.5,56.2,48.0,41.8,93,73,35,29.78,29.56,17,4,17,0.00
2013-3-24,56.2,46.3,35.0,50.8,26.1,18.4,82,48,27,30.19,29.77,18,9,25,0.00
2013-3-25,55.7,43.9,31.1,22.3,18.9,13.6,60,38,23,30.40,30.17,9,5,12,0.00
2013-3-26,63.3,47.2,26.7,24.3,20.5,17.6,76,39,18,30.48,30.23,11,3,14,0.00
2013-3-27,69.6,55.6,40.0,47.6,36.3,23.6,68,49,36,30.26,30.04,17,7,27,0.00
2013-3-28,74.4,60.6,47.1,57.4,51.6,43.9,92,73,51,30.13,30.01,16,7,22,0.00
2013-3-29,76.7,66.7,54.3,58.0,56.2,52.4,95,71,50,30.09,29.97,15,7,21,0.00
2013-3-30,83.2,72.7,61.1,62.8,59.9,55.6,89,65,47,30.02,29.77,11,7,15,0.00
2013-3-31,80.7,71.5,62.7,62.8,57.3,52.7,90,63,39,29.93,29.81,16,6,19,0.00